createdAt,value
2023-05-01T00:01:00.791Z,5.04
2023-05-01T00:02:02.421Z,5.04
2023-05-01T00:03:04.210Z,5.02
2023-05-01T00:04:06.268Z,5.01
2023-05-01T00:05:08.615Z,4.99
2023-05-01T00:06:10.808Z,4.97
2023-05-01T00:07:12.626Z,4.94
2023-05-01T00:08:14.406Z,4.93
2023-05-01T00:09:16.589Z,4.92
2023-05-01T00:10:19.433Z,4.92
2023-05-01T00:11:20.985Z,4.90
2023-05-01T00:12:23.662Z,4.91
2023-05-01T00:13:25.412Z,4.90
2023-05-01T00:14:28.311Z,4.88
2023-05-01T00:15:31.296Z,4.86
2023-05-01T00:16:33.055Z,4.84
2023-05-01T00:17:35.006Z,4.81
2023-05-01T00:18:37.041Z,4.77
2023-05-01T00:19:38.606Z,4.73
2023-05-01T00:20:40.288Z,4.72
2023-05-01T00:21:42.427Z,4.69
2023-05-01T00:22:44.010Z,4.68
2023-05-01T00:23:45.663Z,4.66
2023-05-01T00:24:49.198Z,4.64
2023-05-01T00:25:50.880Z,4.62
2023-05-01T00:26:52.747Z,4.60
2023-05-01T00:27:54.595Z,4.58
2023-05-01T00:28:56.265Z,4.57
2023-05-01T00:29:58.075Z,4.55
2023-05-01T00:30:59.980Z,4.51
2023-05-01T00:32:01.961Z,4.49
2023-05-01T00:33:03.779Z,4.47
2023-05-01T00:34:06.197Z,4.44
2023-05-01T00:35:08.258Z,4.42
2023-05-01T00:36:10.652Z,4.40
2023-05-01T00:37:12.245Z,4.38
2023-05-01T00:38:13.844Z,4.36
2023-05-01T00:39:16.623Z,4.32
2023-05-01T00:40:18.588Z,4.30
2023-05-01T00:41:21.247Z,4.30
2023-05-01T00:42:22.876Z,4.29
2023-05-01T00:43:25.027Z,4.30
2023-05-01T00:44:26.943Z,4.29
2023-05-01T00:45:28.732Z,4.27
2023-05-01T00:46:32.239Z,4.26
2023-05-01T00:47:37.940Z,4.24
2023-05-01T00:48:39.822Z,4.23
2023-05-01T00:49:43.702Z,4.23
2023-05-01T00:50:46.138Z,4.22
2023-05-01T00:51:53.362Z,4.20
2023-05-01T00:52:55.494Z,4.19
2023-05-01T00:54:00.255Z,4.18
2023-05-01T00:55:02.003Z,4.15
2023-05-01T00:56:04.451Z,4.14
2023-05-01T00:57:06.877Z,4.13
2023-05-01T00:58:10.530Z,4.12
2023-05-01T00:59:12.571Z,4.09
2023-05-01T01:00:14.952Z,4.09
2023-05-01T01:01:17.492Z,4.07
2023-05-01T01:02:19.223Z,4.07
2023-05-01T01:03:21.386Z,4.07
2023-05-01T01:04:23.385Z,4.07
2023-05-01T01:05:28.341Z,4.07
2023-05-01T01:06:51.286Z,4.05
2023-05-01T01:08:05.235Z,4.04
2023-05-01T01:09:38.768Z,4.02
2023-05-01T01:10:51.020Z,3.97
2023-05-01T01:12:12.554Z,3.93
2023-05-01T01:13:25.765Z,3.90
2023-05-01T01:14:35.594Z,3.86
2023-05-01T01:15:47.103Z,3.83
2023-05-01T01:16:57.471Z,3.79
2023-05-01T01:18:09.282Z,3.74
2023-05-01T01:19:49.320Z,3.70
2023-05-01T01:21:08.838Z,3.67
2023-05-01T01:22:15.552Z,3.64
2023-05-01T01:23:42.147Z,3.61
2023-05-01T01:25:00.516Z,3.57
2023-05-01T01:26:07.178Z,3.56
2023-05-01T01:27:27.081Z,3.54
2023-05-01T01:29:04.700Z,3.53
2023-05-01T01:30:18.222Z,3.49
2023-05-01T01:31:50.639Z,3.46
2023-05-01T01:33:04.743Z,3.45
2023-05-01T01:34:15.084Z,3.45
2023-05-01T01:35:24.707Z,3.45
2023-05-01T01:36:56.022Z,3.42
2023-05-01T01:38:15.792Z,3.40
2023-05-01T01:39:37.865Z,3.38
2023-05-01T01:40:50.420Z,3.36
2023-05-01T01:41:54.063Z,3.35
2023-05-01T01:43:02.483Z,3.36
2023-05-01T01:44:09.790Z,3.36
2023-05-01T01:45:37.586Z,3.35
2023-05-01T01:46:41.278Z,3.36
2023-05-01T01:47:44.928Z,3.34
2023-05-01T01:48:49.877Z,3.35
2023-05-01T01:49:53.685Z,3.35
2023-05-01T01:50:59.276Z,3.36
2023-05-01T01:52:04.026Z,3.37
2023-05-01T01:53:08.585Z,3.37
2023-05-01T01:54:13.292Z,3.39
2023-05-01T01:55:16.764Z,3.39
2023-05-01T01:56:21.523Z,3.39
2023-05-01T01:57:25.099Z,3.39
2023-05-01T01:58:29.401Z,3.40
2023-05-01T01:59:33.804Z,3.41
2023-05-01T02:00:39.039Z,3.41
2023-05-01T02:01:42.247Z,3.41
2023-05-01T02:02:44.909Z,3.40
2023-05-01T02:03:47.828Z,3.40
2023-05-01T02:04:51.645Z,3.41
2023-05-01T02:05:56.603Z,3.41
2023-05-01T02:07:00.009Z,3.40
2023-05-01T02:08:04.135Z,3.39
2023-05-01T02:09:07.626Z,3.38
2023-05-01T02:10:12.925Z,3.37
2023-05-01T02:11:17.071Z,3.36
2023-05-01T02:12:21.009Z,3.35
2023-05-01T02:13:24.637Z,3.34
2023-05-01T02:14:27.566Z,3.33
2023-05-01T02:15:30.480Z,3.33
2023-05-01T02:16:35.991Z,3.32
2023-05-01T02:17:41.298Z,3.33
2023-05-01T02:18:46.318Z,3.33
2023-05-01T02:19:49.247Z,3.33
2023-05-01T02:20:52.070Z,3.33
2023-05-01T02:21:57.434Z,3.34
2023-05-01T02:23:00.009Z,3.34
2023-05-01T02:24:02.448Z,3.34
2023-05-01T02:25:04.918Z,3.33
2023-05-01T02:26:10.793Z,3.31
2023-05-01T02:27:24.980Z,3.29
2023-05-01T02:28:30.212Z,3.28
2023-05-01T02:29:32.064Z,3.27
2023-05-01T02:30:33.690Z,3.27
2023-05-01T02:31:35.517Z,3.28
2023-05-01T02:32:37.886Z,3.27
2023-05-01T02:33:39.749Z,3.27
2023-05-01T02:34:42.231Z,3.25
2023-05-01T02:35:44.722Z,3.25
2023-05-01T02:36:46.461Z,3.21
2023-05-01T02:37:48.408Z,3.22
2023-05-01T02:38:51.320Z,3.19
2023-05-01T02:39:53.253Z,3.19
2023-05-01T02:40:58.075Z,3.17
2023-05-01T02:42:03.228Z,3.16
2023-05-01T02:43:09.182Z,3.15
2023-05-01T02:44:13.203Z,3.13
2023-05-01T02:45:19.870Z,3.11
2023-05-01T02:46:24.330Z,3.12
2023-05-01T02:47:27.701Z,3.12
2023-05-01T02:48:32.706Z,3.11
2023-05-01T02:49:35.362Z,3.11
2023-05-01T02:50:40.634Z,3.10
2023-05-01T02:51:43.440Z,3.09
2023-05-01T02:52:46.469Z,3.08
2023-05-01T02:54:11.104Z,3.08
2023-05-01T02:55:13.059Z,3.08
2023-05-01T02:56:14.843Z,3.07
2023-05-01T02:57:18.096Z,3.05
2023-05-01T02:58:21.022Z,3.05
2023-05-01T02:59:22.659Z,3.05
2023-05-01T03:00:24.480Z,3.04
2023-05-01T03:01:26.273Z,3.05
2023-05-01T03:02:27.993Z,3.04
2023-05-01T03:03:29.651Z,3.04
2023-05-01T03:04:31.507Z,3.05
2023-05-01T03:05:33.143Z,3.06
2023-05-01T03:06:34.894Z,3.06
2023-05-01T03:07:37.028Z,3.06
2023-05-01T03:08:38.817Z,3.05
2023-05-01T03:09:40.483Z,3.06
2023-05-01T03:10:43.246Z,3.08
2023-05-01T03:11:44.939Z,3.07
2023-05-01T03:12:46.779Z,3.06
2023-05-01T03:13:48.774Z,3.05
2023-05-01T03:14:50.909Z,3.04
2023-05-01T03:15:53.196Z,3.03
2023-05-01T03:16:56.015Z,3.02
2023-05-01T03:17:57.748Z,3.02
2023-05-01T03:18:59.605Z,3.02
2023-05-01T03:20:01.400Z,3.01
2023-05-01T03:21:03.053Z,3.01
2023-05-01T03:22:04.967Z,2.99
2023-05-01T03:23:07.652Z,2.99
2023-05-01T03:24:10.176Z,2.98
2023-05-01T03:25:11.844Z,2.98
2023-05-01T03:26:13.748Z,2.99
2023-05-01T03:27:15.705Z,2.99
2023-05-01T03:28:17.558Z,2.97
2023-05-01T03:29:19.820Z,2.98
2023-05-01T03:30:21.937Z,2.98
2023-05-01T03:31:24.882Z,2.97
2023-05-01T03:32:29.469Z,2.98
2023-05-01T03:33:32.305Z,2.97
2023-05-01T03:34:34.313Z,2.97
2023-05-01T03:35:39.006Z,2.97
2023-05-01T03:36:41.590Z,2.96
2023-05-01T03:37:45.951Z,2.96
2023-05-01T03:38:56.276Z,2.96
2023-05-01T03:40:21.786Z,2.95
2023-05-01T03:41:42.020Z,2.94
2023-05-01T03:42:54.045Z,2.94
2023-05-01T03:43:58.394Z,2.93
2023-05-01T03:45:19.657Z,2.92
2023-05-01T03:46:21.855Z,2.90
2023-05-01T03:47:23.911Z,2.90
2023-05-01T03:48:25.649Z,2.90
2023-05-01T03:49:28.510Z,2.90
2023-05-01T03:50:30.458Z,2.89
2023-05-01T03:51:32.574Z,2.90
2023-05-01T03:52:34.758Z,2.90
2023-05-01T03:53:39.425Z,2.89
2023-05-01T03:54:42.927Z,2.89
2023-05-01T03:56:04.223Z,2.88
2023-05-01T03:57:06.295Z,2.88
2023-05-01T03:58:09.197Z,2.90
2023-05-01T03:59:11.544Z,2.90
2023-05-01T04:00:13.694Z,2.90
2023-05-01T04:01:20.723Z,2.90
2023-05-01T04:02:23.181Z,2.90
2023-05-01T04:03:25.475Z,2.90
2023-05-01T04:04:29.974Z,2.91
2023-05-01T04:05:33.611Z,2.93
2023-05-01T04:06:37.553Z,2.95
2023-05-01T04:07:41.467Z,2.98
2023-05-01T04:08:43.336Z,3.02
2023-05-01T04:09:45.135Z,3.11
2023-05-01T04:10:47.825Z,3.23
2023-05-01T04:11:49.699Z,3.36
2023-05-01T04:12:51.889Z,3.54
2023-05-01T04:13:54.056Z,3.69
2023-05-01T04:14:55.813Z,3.83
2023-05-01T04:15:59.574Z,3.99
2023-05-01T04:17:02.620Z,4.16
2023-05-01T04:18:07.955Z,4.33
2023-05-01T04:19:10.313Z,4.51
2023-05-01T04:20:17.024Z,4.68
2023-05-01T04:21:18.982Z,4.81
2023-05-01T04:22:24.915Z,4.91
2023-05-01T04:23:27.280Z,4.95
2023-05-01T04:24:32.707Z,4.92
2023-05-01T04:25:34.634Z,4.87
2023-05-01T04:26:42.687Z,4.77
2023-05-01T04:27:44.799Z,4.66
2023-05-01T04:28:47.712Z,4.59
2023-05-01T04:29:52.777Z,4.51
2023-05-01T04:30:54.483Z,4.42
2023-05-01T04:31:56.540Z,4.35
2023-05-01T04:33:02.153Z,4.28
2023-05-01T04:34:04.564Z,4.22
2023-05-01T04:35:06.834Z,4.17
2023-05-01T04:36:08.503Z,4.13
2023-05-01T04:37:10.622Z,4.08
2023-05-01T04:38:12.538Z,4.05
2023-05-01T04:39:16.968Z,4.03
2023-05-01T04:40:18.784Z,4.01
2023-05-01T04:41:21.559Z,4.01
2023-05-01T04:42:23.598Z,4.01
2023-05-01T04:43:25.975Z,4.02
2023-05-01T04:44:27.986Z,4.01
2023-05-01T04:45:30.341Z,4.01
2023-05-01T04:46:32.042Z,4.01
2023-05-01T04:47:33.815Z,4.02
2023-05-01T04:48:36.479Z,4.02
2023-05-01T04:49:38.058Z,4.02
2023-05-01T04:50:39.908Z,4.02
2023-05-01T04:51:42.171Z,4.03
2023-05-01T04:52:47.238Z,4.06
2023-05-01T04:53:49.019Z,4.06
2023-05-01T04:54:57.946Z,4.08
2023-05-01T04:56:01.788Z,4.11
2023-05-01T04:57:05.281Z,4.12
2023-05-01T04:58:07.310Z,4.14
2023-05-01T04:59:10.843Z,4.17
2023-05-01T05:00:12.891Z,4.17
2023-05-01T05:01:24.682Z,4.19
2023-05-01T05:02:27.122Z,4.22
2023-05-01T05:03:29.027Z,4.24
2023-05-01T05:04:30.694Z,4.26
2023-05-01T05:05:32.749Z,4.30
2023-05-01T05:06:35.095Z,4.32
2023-05-01T05:07:42.794Z,4.36
2023-05-01T05:09:04.149Z,4.39
2023-05-01T05:10:06.956Z,4.43
2023-05-01T05:11:09.827Z,4.45
2023-05-01T05:12:34.860Z,4.49
2023-05-01T05:13:37.138Z,4.54
2023-05-01T05:14:45.843Z,4.56
2023-05-01T05:15:48.200Z,4.59
2023-05-01T05:16:51.702Z,4.61
2023-05-01T05:17:56.371Z,4.67
2023-05-01T05:18:58.732Z,4.71
2023-05-01T05:20:02.665Z,4.77
2023-05-01T05:21:05.771Z,4.82
2023-05-01T05:22:07.718Z,4.86
2023-05-01T05:23:21.724Z,4.91
2023-05-01T05:24:23.569Z,4.94
2023-05-01T05:25:25.302Z,5.00
2023-05-01T05:26:27.889Z,5.04
2023-05-01T05:27:37.804Z,5.09
2023-05-01T05:28:40.961Z,5.13
2023-05-01T05:29:43.019Z,5.19
2023-05-01T05:30:47.022Z,5.24
2023-05-01T05:31:52.171Z,5.30
2023-05-01T05:32:53.909Z,5.35
2023-05-01T05:33:57.080Z,5.40
2023-05-01T05:34:58.979Z,5.46
2023-05-01T05:36:02.126Z,5.53
2023-05-01T05:37:09.993Z,5.62
2023-05-01T05:38:20.893Z,5.69
2023-05-01T05:39:26.771Z,5.76
2023-05-01T05:40:28.867Z,5.84
2023-05-01T05:41:32.832Z,5.92
2023-05-01T05:42:37.171Z,6.00
2023-05-01T05:43:41.273Z,6.07
2023-05-01T05:44:43.783Z,6.14
2023-05-01T05:45:47.044Z,6.22
2023-05-01T05:46:48.924Z,6.31
2023-05-01T05:47:59.898Z,6.39
2023-05-01T05:49:03.026Z,6.45
2023-05-01T05:50:07.446Z,6.51
2023-05-01T05:51:09.463Z,6.59
2023-05-01T05:52:11.517Z,6.64
2023-05-01T05:53:13.971Z,6.70
2023-05-01T05:54:17.858Z,6.76
2023-05-01T05:55:21.065Z,6.83
2023-05-01T05:56:35.859Z,6.93
2023-05-01T05:57:37.844Z,7.01
2023-05-01T05:58:41.945Z,7.09
2023-05-01T05:59:45.032Z,7.19
2023-05-01T06:00:50.563Z,7.30
2023-05-01T06:01:53.019Z,7.36
2023-05-01T06:02:58.358Z,7.45
2023-05-01T06:04:02.520Z,7.52
2023-05-01T06:05:06.235Z,7.61
2023-05-01T06:06:08.174Z,7.69
2023-05-01T06:07:10.512Z,7.80
2023-05-01T06:08:12.917Z,7.89
2023-05-01T06:09:15.386Z,7.97
2023-05-01T06:10:18.257Z,8.07
2023-05-01T06:11:21.923Z,8.14
2023-05-01T06:12:24.523Z,8.18
2023-05-01T06:13:28.902Z,8.27
2023-05-01T06:14:30.771Z,8.31
2023-05-01T06:15:32.481Z,8.41
2023-05-01T06:16:35.896Z,8.49
2023-05-01T06:17:37.852Z,8.58
2023-05-01T06:18:40.763Z,8.65
2023-05-01T06:19:42.445Z,8.71
2023-05-01T06:20:47.201Z,8.79
2023-05-01T06:21:48.893Z,8.86
2023-05-01T06:22:50.678Z,8.93
2023-05-01T06:23:57.297Z,9.00
2023-05-01T06:25:04.391Z,9.06
2023-05-01T06:26:08.025Z,9.13
2023-05-01T06:27:10.516Z,9.21
2023-05-01T06:28:12.495Z,9.27
2023-05-01T06:29:14.392Z,9.32
2023-05-01T06:30:16.907Z,9.37
2023-05-01T06:31:18.640Z,9.43
2023-05-01T06:32:25.614Z,9.48
2023-05-01T06:33:27.871Z,9.52
2023-05-01T06:34:50.066Z,9.57
2023-05-01T06:35:54.910Z,9.61
2023-05-01T06:36:57.385Z,9.62
2023-05-01T06:38:00.289Z,9.67
2023-05-01T06:39:02.073Z,9.70
2023-05-01T06:40:10.465Z,9.73
2023-05-01T06:41:12.944Z,9.75
2023-05-01T06:42:17.419Z,9.78
2023-05-01T06:43:19.893Z,9.82
2023-05-01T06:44:22.462Z,9.86
2023-05-01T06:45:24.128Z,9.89
2023-05-01T06:46:26.005Z,9.94
2023-05-01T06:47:27.954Z,9.97
2023-05-01T06:48:31.746Z,10.01
2023-05-01T06:49:33.997Z,10.01
2023-05-01T06:50:36.330Z,9.99
2023-05-01T06:51:38.430Z,10.03
2023-05-01T06:52:41.667Z,10.07
2023-05-01T06:53:43.515Z,10.12
2023-05-01T06:54:45.629Z,10.19
2023-05-01T06:55:47.491Z,10.24
2023-05-01T06:56:49.276Z,10.25
2023-05-01T06:57:50.859Z,10.29
2023-05-01T06:58:52.514Z,10.31
2023-05-01T06:59:54.746Z,10.36
2023-05-01T07:00:57.081Z,10.41
2023-05-01T07:01:58.849Z,10.48
2023-05-01T07:03:00.658Z,10.54
2023-05-01T07:04:04.059Z,10.58
2023-05-01T07:05:06.285Z,10.65
2023-05-01T07:06:08.137Z,10.71
2023-05-01T07:07:10.532Z,10.77
2023-05-01T07:08:12.720Z,10.83
2023-05-01T07:09:17.158Z,10.89
2023-05-01T07:10:19.355Z,10.96
2023-05-01T07:11:21.799Z,11.01
2023-05-01T07:12:24.005Z,11.09
2023-05-01T07:13:27.071Z,11.14
2023-05-01T07:14:29.103Z,11.21
2023-05-01T07:15:30.990Z,11.26
2023-05-01T07:16:32.804Z,11.34
2023-05-01T07:17:35.619Z,11.40
2023-05-01T07:18:37.878Z,11.47
2023-05-01T07:19:39.828Z,11.53
2023-05-01T07:20:42.026Z,11.58
2023-05-01T07:21:44.472Z,11.61
2023-05-01T07:22:46.393Z,11.66
2023-05-01T07:23:47.997Z,11.68
2023-05-01T07:24:49.672Z,11.72
2023-05-01T07:25:51.928Z,11.78
2023-05-01T07:26:53.565Z,11.84
2023-05-01T07:27:55.341Z,11.87
2023-05-01T07:28:57.055Z,11.90
2023-05-01T07:30:00.689Z,11.92
2023-05-01T07:31:02.459Z,11.91
2023-05-01T07:32:05.988Z,11.96
2023-05-01T07:33:07.840Z,11.99
2023-05-01T07:34:09.608Z,12.05
2023-05-01T07:35:11.271Z,12.09
2023-05-01T07:36:13.100Z,12.11
2023-05-01T07:37:14.765Z,12.14
2023-05-01T07:38:16.888Z,12.17
2023-05-01T07:39:18.548Z,12.18
2023-05-01T07:40:20.193Z,12.21
2023-05-01T07:41:22.714Z,12.25
2023-05-01T07:42:24.325Z,12.29
2023-05-01T07:43:26.050Z,12.34
2023-05-01T07:44:27.850Z,12.38
2023-05-01T07:45:29.542Z,12.42
2023-05-01T07:46:31.579Z,12.47
2023-05-01T07:47:34.689Z,12.50
2023-05-01T07:48:38.709Z,12.55
2023-05-01T07:49:41.004Z,12.58
2023-05-01T07:50:43.048Z,12.58
2023-05-01T07:51:45.557Z,12.60
2023-05-01T07:52:47.291Z,12.63
2023-05-01T07:53:49.440Z,12.66
2023-05-01T07:54:51.415Z,12.72
2023-05-01T07:55:53.110Z,12.76
2023-05-01T07:56:54.760Z,12.79
2023-05-01T07:57:56.541Z,12.79
2023-05-01T07:58:58.220Z,12.83
2023-05-01T07:59:59.905Z,12.83
2023-05-01T08:01:01.952Z,12.88
2023-05-01T08:02:03.694Z,12.94
2023-05-01T08:03:05.565Z,12.98
2023-05-01T08:04:07.850Z,13.01
2023-05-01T08:05:09.978Z,13.02
2023-05-01T08:06:11.640Z,13.05
2023-05-01T08:07:13.489Z,13.11
2023-05-01T08:08:20.520Z,13.18
2023-05-01T08:09:22.204Z,13.26
2023-05-01T08:10:23.858Z,13.32
2023-05-01T08:11:26.701Z,13.38
2023-05-01T08:12:31.563Z,13.43
2023-05-01T08:13:33.505Z,13.47
2023-05-01T08:14:35.256Z,13.52
2023-05-01T08:15:39.057Z,13.56
2023-05-01T08:16:40.926Z,13.61
2023-05-01T08:17:42.617Z,13.62
2023-05-01T08:18:44.336Z,13.61
2023-05-01T08:19:46.602Z,13.64
2023-05-01T08:20:48.895Z,13.65
2023-05-01T08:21:50.542Z,13.68
2023-05-01T08:22:52.338Z,13.72
2023-05-01T08:23:55.747Z,13.74
2023-05-01T08:24:57.309Z,13.79
2023-05-01T08:26:01.640Z,13.86
2023-05-01T08:27:03.356Z,13.89
2023-05-01T08:28:05.512Z,13.90
2023-05-01T08:29:07.083Z,13.93
2023-05-01T08:30:09.417Z,13.98
2023-05-01T08:31:11.077Z,14.00
2023-05-01T08:32:12.811Z,14.05
2023-05-01T08:33:14.535Z,14.04
2023-05-01T08:34:17.358Z,14.08
2023-05-01T08:35:19.011Z,14.10
2023-05-01T08:36:21.372Z,14.11
2023-05-01T08:37:23.163Z,14.13
2023-05-01T08:38:24.953Z,14.11
2023-05-01T08:39:26.862Z,14.14
2023-05-01T08:40:33.563Z,14.15
2023-05-01T08:41:37.503Z,14.16
2023-05-01T08:42:39.329Z,14.19
2023-05-01T08:43:41.286Z,14.23
2023-05-01T08:44:43.869Z,14.23
2023-05-01T08:45:47.454Z,14.25
2023-05-01T08:47:15.339Z,14.22
2023-05-01T08:48:20.893Z,14.20
2023-05-01T08:49:24.392Z,14.23
2023-05-01T08:50:27.553Z,14.25
2023-05-01T08:51:33.331Z,14.21
2023-05-01T08:52:35.354Z,14.22
2023-05-01T08:53:38.587Z,14.25
2023-05-01T08:54:44.179Z,14.30
2023-05-01T08:55:49.048Z,14.34
2023-05-01T08:56:53.012Z,14.36
2023-05-01T08:57:55.797Z,14.43
2023-05-01T08:58:59.472Z,14.48
2023-05-01T09:00:01.696Z,14.52
2023-05-01T09:01:03.989Z,14.57
2023-05-01T09:02:10.408Z,14.64
2023-05-01T09:03:16.093Z,14.70
2023-05-01T09:04:18.009Z,14.75
2023-05-01T09:05:21.358Z,14.76
2023-05-01T09:06:23.579Z,14.78
2023-05-01T09:07:25.568Z,14.84
2023-05-01T09:08:28.213Z,14.92
2023-05-01T09:09:31.024Z,14.96
2023-05-01T09:10:35.041Z,15.01
2023-05-01T09:11:37.019Z,15.05
2023-05-01T09:12:39.658Z,15.07
2023-05-01T09:13:41.458Z,15.09
2023-05-01T09:14:43.293Z,15.10
2023-05-01T09:15:45.042Z,15.13
2023-05-01T09:16:47.208Z,15.16
2023-05-01T09:17:49.238Z,15.20
2023-05-01T09:18:51.385Z,15.26
2023-05-01T09:19:53.574Z,15.29
2023-05-01T09:20:55.701Z,15.33
2023-05-01T09:21:57.264Z,15.39
2023-05-01T09:22:59.068Z,15.43
2023-05-01T09:24:02.063Z,15.49
2023-05-01T09:25:04.209Z,15.51
2023-05-01T09:26:06.713Z,15.53
2023-05-01T09:27:08.627Z,15.55
2023-05-01T09:28:10.409Z,15.58
2023-05-01T09:29:12.233Z,15.60
2023-05-01T09:30:32.162Z,15.58
2023-05-01T09:31:34.899Z,15.62
2023-05-01T09:32:36.911Z,15.66
2023-05-01T09:33:53.769Z,15.70
2023-05-01T09:35:08.867Z,15.71
2023-05-01T09:36:17.346Z,15.76
2023-05-01T09:37:30.041Z,15.80
2023-05-01T09:38:31.823Z,15.86
2023-05-01T09:39:33.480Z,15.93
2023-05-01T09:40:35.167Z,15.98
2023-05-01T09:41:51.469Z,16.03
2023-05-01T09:42:54.892Z,16.09
2023-05-01T09:43:57.894Z,16.14
2023-05-01T09:45:01.206Z,16.17
2023-05-01T09:46:04.978Z,16.21
2023-05-01T09:47:08.234Z,16.26
2023-05-01T09:48:14.408Z,16.32
2023-05-01T09:49:16.366Z,16.39
2023-05-01T09:50:33.019Z,16.46
2023-05-01T09:51:35.160Z,16.47
2023-05-01T09:52:36.954Z,16.52
2023-05-01T09:53:39.915Z,16.53
2023-05-01T09:54:41.735Z,16.57
2023-05-01T09:55:52.325Z,16.57
2023-05-01T09:56:53.919Z,16.58
2023-05-01T09:57:55.534Z,16.61
2023-05-01T09:58:58.425Z,16.62
2023-05-01T10:00:10.160Z,16.64
2023-05-01T10:01:12.163Z,16.67
2023-05-01T10:02:32.344Z,16.68
2023-05-01T10:03:34.841Z,16.66
2023-05-01T10:04:37.335Z,16.65
2023-05-01T10:05:45.507Z,16.69
2023-05-01T10:06:47.188Z,16.70
2023-05-01T10:07:59.335Z,16.69
2023-05-01T10:09:01.401Z,16.73
2023-05-01T10:10:23.615Z,16.78
2023-05-01T10:11:26.852Z,16.78
2023-05-01T10:12:29.766Z,16.75
2023-05-01T10:13:32.027Z,16.75
2023-05-01T10:14:38.618Z,16.77
2023-05-01T10:15:40.367Z,16.78
2023-05-01T10:16:42.003Z,16.77
2023-05-01T10:17:44.963Z,16.77
2023-05-01T10:18:48.638Z,16.74
2023-05-01T10:19:51.606Z,16.71
2023-05-01T10:20:53.400Z,16.72
2023-05-01T10:21:55.119Z,16.70
2023-05-01T10:22:56.972Z,16.70
2023-05-01T10:23:59.157Z,16.71
2023-05-01T10:25:01.446Z,16.75
2023-05-01T10:26:07.069Z,16.76
2023-05-01T10:27:10.230Z,16.74
2023-05-01T10:28:12.801Z,16.77
2023-05-01T10:29:14.822Z,16.79
2023-05-01T10:30:18.142Z,16.80
2023-05-01T10:31:20.442Z,16.83
2023-05-01T10:32:22.243Z,16.87
2023-05-01T10:33:25.303Z,16.90
2023-05-01T10:34:28.526Z,16.93
2023-05-01T10:35:34.569Z,16.97
2023-05-01T10:36:48.726Z,17.04
2023-05-01T10:38:06.546Z,17.11
2023-05-01T10:39:32.184Z,17.14
2023-05-01T10:40:39.973Z,17.16
2023-05-01T10:42:02.153Z,17.15
2023-05-01T10:43:18.303Z,17.17
2023-05-01T10:44:21.739Z,17.20
2023-05-01T10:45:30.789Z,17.27
2023-05-01T10:46:32.586Z,17.27
2023-05-01T10:47:35.319Z,17.29
2023-05-01T10:48:43.810Z,17.28
2023-05-01T10:50:07.958Z,17.30
2023-05-01T10:51:21.351Z,17.35
2023-05-01T10:52:22.965Z,17.41
2023-05-01T10:53:24.748Z,17.47
2023-05-01T10:54:30.495Z,17.54
2023-05-01T10:55:36.604Z,17.52
2023-05-01T10:56:38.164Z,17.58
2023-05-01T10:57:44.280Z,17.59
2023-05-01T10:58:51.468Z,17.62
2023-05-01T10:59:58.964Z,17.66
2023-05-01T11:01:27.980Z,17.68
2023-05-01T11:02:31.974Z,17.68
2023-05-01T11:03:36.888Z,17.70
2023-05-01T11:04:51.066Z,17.71
2023-05-01T11:06:04.329Z,17.70
2023-05-01T11:07:07.488Z,17.71
2023-05-01T11:08:35.665Z,17.66
2023-05-01T11:09:43.118Z,17.70
2023-05-01T11:10:44.781Z,17.76
2023-05-01T11:11:48.241Z,17.83
2023-05-01T11:12:51.710Z,17.86
2023-05-01T11:14:00.746Z,17.92
2023-05-01T11:15:04.326Z,17.98
2023-05-01T11:16:39.978Z,17.98
2023-05-01T11:17:41.842Z,17.97
2023-05-01T11:18:46.624Z,17.97
2023-05-01T11:19:48.438Z,17.97
2023-05-01T11:20:50.339Z,17.98
2023-05-01T11:21:52.508Z,18.00
2023-05-01T11:22:56.374Z,18.02
2023-05-01T11:23:58.008Z,18.06
2023-05-01T11:25:00.985Z,18.08
2023-05-01T11:26:04.913Z,18.13
2023-05-01T11:27:06.885Z,18.10
2023-05-01T11:28:10.016Z,18.09
2023-05-01T11:29:12.112Z,18.07
2023-05-01T11:30:13.718Z,18.10
2023-05-01T11:31:18.878Z,18.17
2023-05-01T11:32:27.013Z,18.24
2023-05-01T11:33:29.167Z,18.26
2023-05-01T11:34:38.126Z,18.26
2023-05-01T11:35:42.421Z,18.32
2023-05-01T11:36:52.032Z,18.39
2023-05-01T11:37:56.021Z,18.47
2023-05-01T11:39:00.020Z,18.55
2023-05-01T11:40:07.577Z,18.59
2023-05-01T11:41:12.484Z,18.66
2023-05-01T11:42:16.181Z,18.70
2023-05-01T11:43:18.209Z,18.75
2023-05-01T11:44:22.426Z,18.75
2023-05-01T11:45:24.629Z,18.75
2023-05-01T11:46:28.978Z,18.67
2023-05-01T11:47:32.752Z,18.68
2023-05-01T11:48:35.432Z,18.71
2023-05-01T11:49:37.667Z,18.72
2023-05-01T11:50:39.308Z,18.72
2023-05-01T11:51:41.007Z,18.76
2023-05-01T11:52:53.411Z,18.76
2023-05-01T11:54:01.824Z,18.76
2023-05-01T11:55:04.841Z,18.82
2023-05-01T11:56:26.049Z,18.85
2023-05-01T11:57:28.957Z,18.87
2023-05-01T11:58:32.980Z,18.94
2023-05-01T11:59:34.725Z,18.99
2023-05-01T12:00:43.767Z,19.07
2023-05-01T12:01:46.746Z,19.16
2023-05-01T12:03:02.088Z,19.24
2023-05-01T12:04:05.164Z,19.30
2023-05-01T12:05:17.260Z,19.39
2023-05-01T12:06:19.227Z,19.38
2023-05-01T12:07:24.513Z,19.40
2023-05-01T12:08:26.564Z,19.42
2023-05-01T12:09:30.732Z,19.41
2023-05-01T12:10:34.850Z,19.45
2023-05-01T12:11:38.316Z,19.50
2023-05-01T12:12:39.991Z,19.53
2023-05-01T12:13:41.976Z,19.53
2023-05-01T12:14:43.831Z,19.50
2023-05-01T12:15:47.256Z,19.47
2023-05-01T12:16:49.497Z,19.51
2023-05-01T12:17:51.488Z,19.56
2023-05-01T12:18:53.297Z,19.58
2023-05-01T12:19:55.247Z,19.59
2023-05-01T12:20:56.915Z,19.63
2023-05-01T12:22:07.034Z,19.71
2023-05-01T12:23:11.504Z,19.79
2023-05-01T12:24:16.161Z,19.88
2023-05-01T12:25:18.049Z,19.94
2023-05-01T12:26:25.193Z,19.98
2023-05-01T12:27:26.921Z,19.90
2023-05-01T12:28:29.060Z,19.94
2023-05-01T12:29:41.397Z,19.97
2023-05-01T12:30:45.368Z,20.06
2023-05-01T12:31:49.107Z,20.13
2023-05-01T12:32:50.952Z,20.19
2023-05-01T12:33:54.892Z,20.22
2023-05-01T12:34:57.058Z,20.26
2023-05-01T12:36:11.539Z,20.32
2023-05-01T12:37:13.234Z,20.37
2023-05-01T12:38:23.402Z,20.43
2023-05-01T12:39:26.784Z,20.50
2023-05-01T12:40:28.634Z,20.55
2023-05-01T12:41:45.511Z,20.60
2023-05-01T12:42:58.037Z,20.60
2023-05-01T12:43:59.933Z,20.61
2023-05-01T12:45:01.878Z,20.59
2023-05-01T12:46:05.360Z,20.57
2023-05-01T12:47:08.731Z,20.58
2023-05-01T12:48:14.955Z,20.61
2023-05-01T12:49:18.728Z,20.63
2023-05-01T12:50:21.046Z,20.63
2023-05-01T12:51:22.802Z,20.63
2023-05-01T12:52:27.464Z,20.64
2023-05-01T12:53:29.850Z,20.66
2023-05-01T12:54:32.943Z,20.65
2023-05-01T12:55:43.627Z,20.64
2023-05-01T12:56:46.359Z,20.61
2023-05-01T12:57:54.901Z,20.59
2023-05-01T12:58:57.799Z,20.51
2023-05-01T13:00:01.845Z,20.53
2023-05-01T13:01:03.872Z,20.52
2023-05-01T13:02:13.368Z,20.42
2023-05-01T13:03:20.317Z,20.38
2023-05-01T13:04:22.724Z,20.46
2023-05-01T13:05:25.025Z,20.55
2023-05-01T13:06:33.860Z,20.59
2023-05-01T13:07:36.778Z,20.63
2023-05-01T13:08:40.350Z,20.58
2023-05-01T13:09:59.317Z,20.59
2023-05-01T13:11:10.501Z,20.64
2023-05-01T13:12:12.102Z,20.73
2023-05-01T13:13:13.789Z,20.78
2023-05-01T13:14:15.465Z,20.87
2023-05-01T13:15:21.557Z,20.95
2023-05-01T13:16:24.733Z,21.02
2023-05-01T13:17:29.395Z,21.06
2023-05-01T13:18:33.683Z,21.13
2023-05-01T13:19:36.073Z,21.17
2023-05-01T13:20:38.992Z,21.21
2023-05-01T13:21:48.971Z,21.24
2023-05-01T13:22:50.742Z,21.26
2023-05-01T13:23:58.977Z,21.26
2023-05-01T13:25:03.181Z,21.28
2023-05-01T13:26:07.278Z,21.28
2023-05-01T13:27:09.564Z,21.27
2023-05-01T13:28:18.001Z,21.26
2023-05-01T13:29:19.779Z,21.28
2023-05-01T13:30:32.336Z,21.28
2023-05-01T13:31:34.501Z,21.26
2023-05-01T13:32:41.294Z,21.21
2023-05-01T13:33:43.650Z,21.20
2023-05-01T13:34:45.806Z,21.18
2023-05-01T13:35:47.425Z,21.16
2023-05-01T13:36:49.241Z,21.17
2023-05-01T13:37:54.076Z,21.19
2023-05-01T13:38:57.543Z,21.14
2023-05-01T13:40:02.672Z,21.06
2023-05-01T13:41:04.614Z,21.04
2023-05-01T13:42:07.376Z,21.00
2023-05-01T13:43:16.381Z,20.99
2023-05-01T13:44:19.201Z,21.03
2023-05-01T13:45:21.550Z,21.06
2023-05-01T13:46:26.506Z,21.07
2023-05-01T13:47:28.493Z,21.10
2023-05-01T13:48:32.218Z,21.12
2023-05-01T13:49:34.910Z,21.12
2023-05-01T13:50:40.405Z,21.14
2023-05-01T13:51:43.859Z,21.06
2023-05-01T13:52:45.975Z,21.02
2023-05-01T13:53:47.854Z,20.94
2023-05-01T13:54:56.492Z,20.90
2023-05-01T13:55:58.264Z,20.86
2023-05-01T13:57:01.392Z,20.85
2023-05-01T13:58:03.032Z,20.82
2023-05-01T13:59:06.407Z,20.77
2023-05-01T14:00:19.700Z,20.79
2023-05-01T14:01:22.606Z,20.81
2023-05-01T14:02:29.882Z,20.82
2023-05-01T14:03:40.464Z,20.87
2023-05-01T14:04:42.323Z,20.90
2023-05-01T14:05:43.911Z,20.93